Stuyvesant — WNFX — position and weather

sailwx.info

Track history (hours):
 
Tides and Currents Weather Stations Pressure Air Temp Water Temp Dewpoint Dewpoint Depression Visibility Wind Speed Wind Dir Waves Ship Positions

Stuyvesant

Owner: THE DUTRA GROUP, SAN RAFAEL, CA. More information available from US FCC via Universal Licensing System and Coast Guard Vessel Documentation Center.

Last reported at 2017-Sep-21 16:00 UTC. Time now 2017-Sep-21 16:09 UTC.
Position N 39°12' W 075°17'.

Length 122 m; draft 10 m.

Type: Dredging. MMSI: 368098000.

Date/timePositionNaut miles runAvg speedWind from/ knotsBaromVisibWave heightAir tempDewpointWater temp
2017-Sep-21 16:00N 39°12' W 075°17'5 9.4
2017-Sep-21 15:30N 39°08' W 075°14'3 6.9
2017-Sep-21 15:00N 39°05' W 075°11'0 0.8
2017-Sep-21 14:30N 39°06' W 075°12'0 0.1
2017-Sep-21 13:59N 39°06' W 075°12'1 1.1
2017-Sep-21 13:30N 39°06' W 075°12'1 2.2
2017-Sep-21 13:00N 39°05' W 075°11'0 0.6
2017-Sep-21 12:30N 39°05' W 075°11'1 1.0
2017-Sep-21 12:00N 39°06' W 075°12'0 0.4
2017-Sep-21 11:30N 39°06' W 075°12'1 1.9
2017-Sep-21 11:00N 39°05' W 075°11'0 0.5
2017-Sep-21 10:30N 39°05' W 075°11'1 1.1
2017-Sep-21 10:00N 39°06' W 075°12'1 1.1
2017-Sep-21 09:31N 39°06' W 075°12'1 1.3
2017-Sep-21 09:00N 39°06' W 075°12'0 0.7
2017-Sep-21 08:30N 39°06' W 075°11'0 0.6
2017-Sep-21 08:00N 39°05' W 075°11'0 0.1
2017-Sep-21 07:30N 39°05' W 075°11'0 0.1
2017-Sep-21 07:00N 39°05' W 075°11'0 0.4
2017-Sep-21 06:30N 39°05' W 075°11'0 0.2
2017-Sep-21 06:00N 39°05' W 075°11'0 0.2
2017-Sep-21 05:30N 39°05' W 075°11'0 0.1
2017-Sep-21 05:00N 39°05' W 075°11'0 0.2
2017-Sep-21 04:30N 39°05' W 075°11'0 0.2
2017-Sep-21 04:00N 39°05' W 075°11'2 3.6
2017-Sep-21 03:30N 39°03' W 075°10'4 9.0
2017-Sep-21 03:00N 38°59' W 075°08'4 8.2
2017-Sep-21 02:30N 38°55' W 075°07'3 2.4
2017-Sep-21 01:03N 38°57' W 075°11'0 0.1
2017-Sep-21 01:00N 38°57' W 075°11'0 0.0
2017-Sep-21 00:30N 38°57' W 075°11'0 0.1
2017-Sep-20 22:06N 38°56' W 075°11'0 0.1
2017-Sep-20 21:51N 38°56' W 075°11'0 0.0
2017-Sep-20 21:27N 38°56' W 075°11'0 0.0
2017-Sep-20 20:57N 38°56' W 075°11'0 0.0
2017-Sep-20 20:30N 38°56' W 075°11'0 0.0
2017-Sep-20 19:57N 38°56' W 075°11'0 0.0
2017-Sep-20 19:24N 38°56' W 075°11'0 0.0
2017-Sep-20 19:00N 38°56' W 075°11'0 0.0
2017-Sep-20 18:30N 38°56' W 075°11'0 0.0
2017-Sep-20 18:00N 38°56' W 075°11'0 0.0
2017-Sep-20 17:30N 38°56' W 075°11'0 0.0
2017-Sep-20 17:00N 38°56' W 075°11'0 0.0
2017-Sep-20 16:30N 38°56' W 075°11'0 0.0
2017-Sep-20 16:00N 38°56' W 075°11'0 0.0
2017-Sep-20 15:30N 38°56' W 075°11'0 0.1
2017-Sep-20 14:57N 38°56' W 075°11'0 0.2
2017-Sep-20 14:00N 38°57' W 075°11'0 0.0
2017-Sep-20 12:33N 38°56' W 075°11'0 0.0
2017-Sep-20 12:24N 38°56' W 075°11'0 0.1
2017-Sep-20 12:00N 38°57' W 075°11'0 0.1
2017-Sep-20 11:30N 38°56' W 075°11'0 0.3
2017-Sep-20 11:00N 38°56' W 075°11'0 0.2
2017-Sep-20 10:30N 38°56' W 075°11'0 0.1
2017-Sep-20 09:57N 38°56' W 075°11'0 0.1
2017-Sep-20 09:21N 38°56' W 075°11'0 0.0
2017-Sep-20 09:00N 38°56' W 075°11'0 0.0
2017-Sep-20 08:30N 38°56' W 075°11'0 0.0
2017-Sep-20 07:59N 38°56' W 075°11'0 0.0
2017-Sep-20 07:29N 38°56' W 075°11'0 0.0
2017-Sep-20 06:59N 38°56' W 075°11'0 0.0
2017-Sep-20 06:29N 38°56' W 075°11'0 0.0
2017-Sep-20 05:59N 38°56' W 075°11'0 0.2
2017-Sep-20 05:30N 38°56' W 075°11'2 4.8
2017-Sep-20 05:00N 38°55' W 075°09'10 7.6
2017-Sep-20 03:40N 39°05' W 075°11'2 9.3
2017-Sep-20 03:30N 39°06' W 075°12'5 9.5
2017-Sep-20 03:00N 39°10' W 075°15'5 9.1
2017-Sep-20 02:30N 39°14' W 075°18'4 8.6
2017-Sep-20 02:01N 39°17' W 075°22'3 6.3
2017-Sep-20 01:30N 39°19' W 075°24'1 1.3
2017-Sep-20 01:01N 39°20' W 075°25'1 1.5
2017-Sep-20 00:31N 39°20' W 075°26'1 1.7
2017-Sep-20 00:01N 39°21' W 075°26'1 1.6
2017-Sep-19 23:31N 39°22' W 075°27'1 2.3
2017-Sep-19 23:00N 39°21' W 075°26'1 2.4
2017-Sep-19 22:31N 39°20' W 075°25'1 2.3
2017-Sep-19 22:01N 39°19' W 075°24'1 2.0
2017-Sep-19 21:31N 39°18' W 075°23'1 1.1
2017-Sep-19 21:01N 39°18' W 075°23'1 1.5
2017-Sep-19 20:30N 39°17' W 075°22'1 1.3
2017-Sep-19 20:00N 39°17' W 075°21'0 0.9
2017-Sep-19 19:30N 39°17' W 075°21'0 0.7
2017-Sep-19 19:01N 39°16' W 075°21'0 0.9
2017-Sep-19 18:30N 39°16' W 075°20'1 1.0
2017-Sep-19 18:01N 39°16' W 075°20'1 1.2
2017-Sep-19 17:31N 39°15' W 075°20'1 1.7
2017-Sep-19 17:01N 39°15' W 075°19'1 1.8
2017-Sep-19 16:30N 39°14' W 075°18'1 1.9
2017-Sep-19 16:00N 39°13' W 075°18'1 2.2
2017-Sep-19 15:30N 39°12' W 075°17'1 2.6
2017-Sep-19 15:01N 39°11' W 075°16'2 3.1
2017-Sep-19 14:30N 39°10' W 075°15'4 8.8
2017-Sep-19 14:00N 39°06' W 075°12'5 9.3
2017-Sep-19 13:30N 39°02' W 075°09'5 9.4
2017-Sep-19 13:00N 38°57' W 075°07'3 5.3
2017-Sep-19 12:30N 38°55' W 075°08'2 4.6
2017-Sep-19 12:00N 38°56' W 075°11'0 0.1
2017-Sep-19 11:30N 38°56' W 075°11'0 0.1
2017-Sep-19 11:00N 38°56' W 075°11'0 0.1
2017-Sep-19 10:30N 38°56' W 075°11'0 0.1
2017-Sep-19 10:00N 38°56' W 075°11'0 0.0
2017-Sep-19 09:29N 38°56' W 075°11'0 0.0
2017-Sep-19 09:00N 38°56' W 075°11'0 0.1
2017-Sep-19 08:31N 38°56' W 075°10'0 0.0
2017-Sep-19 07:59N 38°56' W 075°10'0 0.1
2017-Sep-19 07:30N 38°56' W 075°10'0 0.1
2017-Sep-19 07:00N 38°56' W 075°10'0 0.0
2017-Sep-19 06:30N 38°56' W 075°10'0 0.0
2017-Sep-19 06:00N 38°56' W 075°10'0 0.0
2017-Sep-19 05:30N 38°56' W 075°10'0 0.0
2017-Sep-19 05:00N 38°56' W 075°10'0 0.1
2017-Sep-19 04:30N 38°56' W 075°10'1 2.1
2017-Sep-19 04:00N 38°55' W 075°10'10 6.2
2017-Sep-19 02:25N 39°05' W 075°11'4 9.0
2017-Sep-19 02:00N 39°08' W 075°14'4 6.7
2017-Sep-19 01:29N 39°11' W 075°17'2 4.4
2017-Sep-19 01:00N 39°09' W 075°15'510.4
2017-Sep-19 00:30N 39°05' W 075°11'5 9.6
2017-Sep-19 00:00N 39°01' W 075°09'510.0
2017-Sep-18 23:28N 38°56' W 075°06'3 7.1
2017-Sep-18 23:00N 38°56' W 075°10'0 0.7
2017-Sep-18 22:20N 38°56' W 075°11'0 0.0
2017-Sep-18 21:59N 38°56' W 075°11'0 0.0
2017-Sep-18 21:26N 38°56' W 075°11'0 0.1
2017-Sep-18 20:56N 38°56' W 075°11'0 0.1
2017-Sep-18 20:23N 38°56' W 075°11'0 0.0
2017-Sep-18 19:50N 38°56' W 075°11'0 0.0
2017-Sep-18 19:11N 38°56' W 075°11'0 0.1
2017-Sep-18 18:59N 38°56' W 075°11'0 0.1
2017-Sep-18 18:23N 38°56' W 075°11'0 0.0
2017-Sep-18 17:59N 38°56' W 075°11'0 0.0
2017-Sep-18 17:29N 38°56' W 075°11'0 0.0
2017-Sep-18 16:59N 38°56' W 075°11'0 0.0
2017-Sep-18 16:29N 38°56' W 075°11'0 0.0
2017-Sep-18 15:59N 38°56' W 075°11'0 0.0
2017-Sep-18 15:26N 38°56' W 075°11'0 0.1
2017-Sep-18 14:59N 38°56' W 075°11'0 0.0
2017-Sep-18 14:26N 38°56' W 075°11'0 0.0
2017-Sep-18 13:41N 38°56' W 075°11'0 0.1
2017-Sep-18 13:29N 38°56' W 075°11'0 0.0
2017-Sep-18 12:59N 38°56' W 075°11'0 0.1
2017-Sep-18 12:29N 38°56' W 075°11'0 0.1
2017-Sep-18 11:59N 38°57' W 075°11'0 0.0
2017-Sep-18 11:29N 38°57' W 075°11'0 0.0
2017-Sep-18 10:59N 38°57' W 075°11'0 0.0
2017-Sep-18 10:29N 38°57' W 075°11'0 0.0
2017-Sep-18 09:59N 38°57' W 075°11'0 0.0
2017-Sep-18 08:56N 38°56' W 075°11'0 0.1
2017-Sep-18 08:29N 38°56' W 075°11'0 0.1
2017-Sep-18 07:50N 38°56' W 075°11'0 0.0
2017-Sep-18 07:26N 38°56' W 075°11'0 0.1
2017-Sep-18 06:59N 38°56' W 075°11'0 0.0
2017-Sep-18 06:23N 38°56' W 075°11'0 0.0
2017-Sep-18 05:59N 38°56' W 075°11'0 0.0
2017-Sep-18 05:29N 38°56' W 075°10'0 0.0
2017-Sep-18 04:53N 38°56' W 075°10'0 0.0
2017-Sep-18 04:29N 38°56' W 075°10'0 0.0
2017-Sep-18 03:59N 38°56' W 075°10'0 0.0
2017-Sep-18 03:29N 38°56' W 075°10'0 0.0
2017-Sep-18 02:56N 38°56' W 075°11'0 0.0
2017-Sep-18 02:26N 38°56' W 075°11'0 0.0
2017-Sep-18 01:59N 38°56' W 075°11'0 0.1
2017-Sep-18 00:11N 38°57' W 075°11'0 0.0
2017-Sep-17 23:59N 38°57' W 075°11'0 0.0
2017-Sep-17 23:14N 38°57' W 075°11'0 0.0
2017-Sep-17 22:50N 38°57' W 075°11'0 0.0
2017-Sep-17 22:26N 38°57' W 075°11'0 0.0
2017-Sep-17 21:53N 38°57' W 075°11'0 0.0
2017-Sep-17 21:29N 38°57' W 075°11'0 0.0
2017-Sep-17 19:44N 38°57' W 075°11'0 0.1
2017-Sep-17 19:29N 38°56' W 075°11'0 0.2
2017-Sep-17 18:56N 38°56' W 075°11'0 0.0
2017-Sep-17 18:23N 38°56' W 075°11'0 0.0
2017-Sep-17 17:56N 38°56' W 075°11'0 0.0
2017-Sep-17 17:29N 38°56' W 075°11'0 0.0
2017-Sep-17 16:53N 38°56' W 075°10'0 0.0
2017-Sep-17 16:28N 38°56' W 075°10'0 0.0
2017-Sep-17 15:58N 38°56' W 075°10'0 0.0
2017-Sep-17 15:28N 38°56' W 075°10'0 0.1
2017-Sep-17 14:58N 38°56' W 075°11'0 0.0
2017-Sep-17 14:25N 38°56' W 075°11'0 0.0
2017-Sep-17 13:58N 38°56' W 075°11'0 0.0
2017-Sep-17 13:28N 38°56' W 075°10'0 0.2
2017-Sep-17 12:43N 38°57' W 075°11'0 0.0
2017-Sep-17 12:25N 38°57' W 075°11'0 0.0
2017-Sep-17 11:58N 38°57' W 075°11'0 0.0
2017-Sep-17 10:16N 38°57' W 075°11'0 0.0
2017-Sep-17 09:58N 38°57' W 075°11'0 0.0
2017-Sep-17 09:22N 38°57' W 075°11'0 0.0
2017-Sep-17 07:34N 38°57' W 075°11'0 0.1
2017-Sep-17 07:28N 38°57' W 075°11'0 0.3
2017-Sep-17 06:58N 38°56' W 075°11'1 1.2
2017-Sep-17 06:30N 38°56' W 075°10'3 6.6
2017-Sep-17 06:00N 38°56' W 075°06'4 8.8
2017-Sep-17 05:30N 38°60' W 075°08'5 9.5
2017-Sep-17 04:57N 39°05' W 075°11'4 9.9
2017-Sep-17 04:31N 39°08' W 075°14'5 9.9
2017-Sep-17 04:00N 39°12' W 075°17'510.1
2017-Sep-17 03:30N 39°16' W 075°21'510.3
2017-Sep-17 03:01N 39°20' W 075°26'510.0
2017-Sep-17 02:30N 39°24' W 075°30'5 9.5
2017-Sep-17 02:00N 39°28' W 075°34'2 3.3
2017-Sep-17 01:30N 39°29' W 075°33'0 0.0
2017-Sep-17 01:00N 39°29' W 075°34'0 0.0
2017-Sep-17 00:30N 39°29' W 075°33'0 0.0
2017-Sep-17 00:00N 39°29' W 075°34'0 0.0
2017-Sep-16 23:31N 39°29' W 075°33'0 0.0
2017-Sep-16 23:00N 39°29' W 075°33'0 0.0
2017-Sep-16 22:30N 39°29' W 075°33'0 0.0
2017-Sep-16 22:00N 39°29' W 075°34'0 0.0
2017-Sep-16 21:30N 39°29' W 075°33'0 0.0
2017-Sep-16 21:00N 39°29' W 075°34'0 0.0
2017-Sep-16 20:30N 39°29' W 075°33'0 0.2
2017-Sep-16 20:00N 39°29' W 075°34'0 0.9
2017-Sep-16 19:30N 39°29' W 075°34'1 2.6
2017-Sep-16 19:00N 39°28' W 075°34'1 2.3
2017-Sep-16 18:30N 39°27' W 075°33'1 2.2
2017-Sep-16 18:00N 39°26' W 075°32'1 2.9
2017-Sep-16 17:30N 39°25' W 075°31'2 4.0
2017-Sep-16 17:00N 39°23' W 075°29'3 7.0
2017-Sep-16 16:30N 39°21' W 075°26'4 8.1
2017-Sep-16 16:00N 39°18' W 075°22'4 8.3
2017-Sep-16 15:30N 39°15' W 075°19'4 8.0
2017-Sep-16 15:00N 39°11' W 075°16'3 7.0
2017-Sep-16 14:30N 39°08' W 075°14'3 6.6
2017-Sep-16 14:00N 39°06' W 075°12'1 1.1
2017-Sep-16 13:30N 39°05' W 075°11'1 1.0
2017-Sep-16 13:00N 39°05' W 075°12'1 1.5
2017-Sep-16 12:30N 39°06' W 075°12'1 1.2
2017-Sep-16 12:01N 39°06' W 075°12'0 0.5
2017-Sep-16 11:30N 39°05' W 075°11'1 1.1
2017-Sep-16 11:00N 39°06' W 075°12'1 1.3
2017-Sep-16 10:30N 39°06' W 075°12'1 1.5
2017-Sep-16 10:00N 39°06' W 075°12'2 3.6
2017-Sep-16 09:31N 39°07' W 075°13'4 7.2
2017-Sep-16 09:00N 39°10' W 075°16'3 6.1
2017-Sep-16 08:30N 39°13' W 075°18'4 7.9
2017-Sep-16 08:00N 39°16' W 075°21'4 9.0
2017-Sep-16 07:30N 39°19' W 075°24'5 9.7
2017-Sep-16 07:00N 39°23' W 075°29'510.0
2017-Sep-16 06:31N 39°27' W 075°33'3 5.1
2017-Sep-16 06:00N 39°29' W 075°34'0 0.0
2017-Sep-16 05:31N 39°29' W 075°34'0 0.0
2017-Sep-16 05:01N 39°29' W 075°34'0 0.0
2017-Sep-16 04:31N 39°29' W 075°34'0 0.0
2017-Sep-16 04:00N 39°29' W 075°34'0 0.0
2017-Sep-16 03:30N 39°29' W 075°34'0 0.0
2017-Sep-16 03:00N 39°29' W 075°34'0 0.0
2017-Sep-16 02:30N 39°29' W 075°34'0 0.1
2017-Sep-16 02:00N 39°29' W 075°34'2 4.3
2017-Sep-16 01:30N 39°27' W 075°33'5 9.2
2017-Sep-16 01:00N 39°24' W 075°29'5 9.6
2017-Sep-16 00:30N 39°20' W 075°25'5 9.8
2017-Sep-16 00:00N 39°16' W 075°21'5 9.8
2017-Sep-15 23:30N 39°13' W 075°17'5 9.6
2017-Sep-15 23:00N 39°08' W 075°14'3 5.4
2017-Sep-15 22:30N 39°06' W 075°12'1 1.1
2017-Sep-15 22:00N 39°06' W 075°12'0 0.8
2017-Sep-15 21:30N 39°05' W 075°11'1 1.0
2017-Sep-15 21:00N 39°06' W 075°12'0 0.5
2017-Sep-15 20:30N 39°06' W 075°12'0 0.9
2017-Sep-15 20:00N 39°05' W 075°11'0 0.8
2017-Sep-15 19:30N 39°06' W 075°12'0 0.6
2017-Sep-15 18:49N 39°06' W 075°12'1 2.7
2017-Sep-15 18:28N 39°05' W 075°11'0 0.7
2017-Sep-15 17:57N 39°05' W 075°11'0 0.6
2017-Sep-15 17:30N 39°06' W 075°12'0 0.7
2017-Sep-15 17:00N 39°06' W 075°12'0 1.0
2017-Sep-15 16:30N 39°06' W 075°12'0 0.8
2017-Sep-15 16:00N 39°05' W 075°11'1 2.7
2017-Sep-15 15:30N 39°06' W 075°12'4 9.0
2017-Sep-15 15:00N 39°10' W 075°16'510.2
2017-Sep-15 14:30N 39°14' W 075°19'510.7
2017-Sep-15 14:00N 39°18' W 075°23'510.5
2017-Sep-15 13:30N 39°22' W 075°28'5 9.5
2017-Sep-15 13:00N 39°26' W 075°32'4 7.1
2017-Sep-15 12:30N 39°29' W 075°34'0 0.3
2017-Sep-15 12:00N 39°29' W 075°34'0 0.0
2017-Sep-15 11:30N 39°29' W 075°34'0 0.0
2017-Sep-15 11:00N 39°29' W 075°34'0 0.0
2017-Sep-15 10:30N 39°29' W 075°34'0 0.0
2017-Sep-15 10:00N 39°29' W 075°34'0 0.0
2017-Sep-15 09:30N 39°29' W 075°34'0 0.0
2017-Sep-15 09:00N 39°29' W 075°34'0 0.0
2017-Sep-15 08:30N 39°29' W 075°33'0 0.0
2017-Sep-15 08:01N 39°29' W 075°33'0 0.3
2017-Sep-15 07:31N 39°29' W 075°34'3 6.5
2017-Sep-15 07:01N 39°26' W 075°32'4 8.3
2017-Sep-15 06:31N 39°23' W 075°29'4 8.3
2017-Sep-15 06:00N 39°20' W 075°25'4 7.1
2017-Sep-15 05:30N 39°17' W 075°22'4 7.6
2017-Sep-15 05:00N 39°15' W 075°19'4 7.3
2017-Sep-15 04:30N 39°11' W 075°17'4 7.7
2017-Sep-15 04:00N 39°08' W 075°14'3 6.6
2017-Sep-15 03:30N 39°05' W 075°11'0 1.0
2017-Sep-15 03:00N 39°06' W 075°12'0 0.3
2017-Sep-15 02:31N 39°06' W 075°12'0 0.6
2017-Sep-15 02:00N 39°05' W 075°11'0 0.9
2017-Sep-15 01:31N 39°05' W 075°11'1 1.1
2017-Sep-15 01:00N 39°05' W 075°12'0 0.7
2017-Sep-15 00:29N 39°06' W 075°12'0 0.4
2017-Sep-15 00:00N 39°06' W 075°12'0 0.8
2017-Sep-14 23:30N 39°06' W 075°12'0 1.0
2017-Sep-14 23:00N 39°05' W 075°11'0 0.2
2017-Sep-14 22:29N 39°05' W 075°11'0 0.8
2017-Sep-14 22:00N 39°06' W 075°12'0 0.3
2017-Sep-14 21:30N 39°06' W 075°12'0 0.2
2017-Sep-14 20:55N 39°06' W 075°12'1 2.5
2017-Sep-14 20:30N 39°07' W 075°12'5 9.9
2017-Sep-14 20:00N 39°11' W 075°16'4 8.5
2017-Sep-14 19:30N 39°14' W 075°19'4 8.6
2017-Sep-14 19:00N 39°18' W 075°22'5 9.6
2017-Sep-14 18:30N 39°21' W 075°26'4 8.9
2017-Sep-14 18:00N 39°25' W 075°30'4 8.8
2017-Sep-14 17:30N 39°28' W 075°34'1 2.5
2017-Sep-14 17:00N 39°29' W 075°34'0 0.0
2017-Sep-14 16:30N 39°29' W 075°34'0 0.0
2017-Sep-14 16:00N 39°29' W 075°34'0 0.0
2017-Sep-14 15:30N 39°29' W 075°34'0 0.0
2017-Sep-14 15:00N 39°29' W 075°34'0 0.0
2017-Sep-14 14:30N 39°29' W 075°34'0 0.0
2017-Sep-14 14:01N 39°29' W 075°34'0 0.0
2017-Sep-14 13:30N 39°29' W 075°34'0 0.0
2017-Sep-14 13:00N 39°29' W 075°34'0 0.0
2017-Sep-14 12:31N 39°29' W 075°34'0 0.1
2017-Sep-14 12:00N 39°29' W 075°34'3 6.3
2017-Sep-14 11:30N 39°26' W 075°32'5 9.3
2017-Sep-14 11:01N 39°23' W 075°28'5 9.5
2017-Sep-14 10:30N 39°19' W 075°24'5 9.7
2017-Sep-14 10:00N 39°16' W 075°20'5 9.5
2017-Sep-14 09:31N 39°12' W 075°17'5 9.2
2017-Sep-14 09:00N 39°08' W 075°14'3 5.4
2017-Sep-14 08:30N 39°06' W 075°12'0 0.6
2017-Sep-14 08:01N 39°06' W 075°12'1 1.6
2017-Sep-14 07:31N 39°05' W 075°11'0 0.8
2017-Sep-14 07:00N 39°06' W 075°11'1 1.1
2017-Sep-14 06:31N 39°06' W 075°12'1 2.0
2017-Sep-14 06:01N 39°05' W 075°11'0 0.8
2017-Sep-14 05:31N 39°05' W 075°11'0 0.9
2017-Sep-14 05:00N 39°06' W 075°12'0 0.7
2017-Sep-14 04:31N 39°06' W 075°12'1 1.5
2017-Sep-14 04:00N 39°06' W 075°11'1 1.2
2017-Sep-14 03:31N 39°05' W 075°11'1 1.2
2017-Sep-14 03:00N 39°06' W 075°11'1 1.4
2017-Sep-14 02:30N 39°06' W 075°12'4 8.6
2017-Sep-14 02:00N 39°10' W 075°15'4 8.5
2017-Sep-14 01:31N 39°13' W 075°18'1 1.1
2017-Sep-14 01:00N 39°14' W 075°18'1 1.9
2017-Sep-14 00:30N 39°15' W 075°19'3 6.8
2017-Sep-14 00:00N 39°17' W 075°22'5 9.2
2017-Sep-13 23:30N 39°21' W 075°26'4 8.5
2017-Sep-13 23:01N 39°24' W 075°29'4 7.9
2017-Sep-13 22:30N 39°27' W 075°33'3 5.5
2017-Sep-13 22:00N 39°29' W 075°34'0 0.0
2017-Sep-13 21:30N 39°29' W 075°34'0 0.0
2017-Sep-13 21:00N 39°29' W 075°34'0 0.0
2017-Sep-13 20:30N 39°29' W 075°34'0 0.0
2017-Sep-13 20:00N 39°29' W 075°33'0 0.0
2017-Sep-13 19:30N 39°29' W 075°34'0 0.0
2017-Sep-13 19:00N 39°29' W 075°34'0 0.0
2017-Sep-13 18:30N 39°29' W 075°34'0 0.0
2017-Sep-13 18:00N 39°29' W 075°33'0 0.0
2017-Sep-13 17:30N 39°29' W 075°34'0 0.1
2017-Sep-13 17:00N 39°29' W 075°34'2 4.7
2017-Sep-13 16:30N 39°27' W 075°33'4 8.0
2017-Sep-13 16:00N 39°24' W 075°30'4 7.7
2017-Sep-13 15:30N 39°21' W 075°26'4 7.9
2017-Sep-13 15:00N 39°18' W 075°23'4 7.4
2017-Sep-13 14:30N 39°15' W 075°20'4 7.7
2017-Sep-13 14:01N 39°12' W 075°17'4 7.9
2017-Sep-13 13:31N 39°09' W 075°15'3 6.6
2017-Sep-13 13:01N 39°06' W 075°12'1 1.2
2017-Sep-13 12:31N 39°06' W 075°12'0 0.3
2017-Sep-13 12:00N 39°06' W 075°12'1 1.3
2017-Sep-13 11:31N 39°06' W 075°12'0 0.5
2017-Sep-13 11:01N 39°06' W 075°12'0 0.9
2017-Sep-13 10:31N 39°06' W 075°12'1 1.1
2017-Sep-13 10:01N 39°05' W 075°11'0 0.1
2017-Sep-13 09:30N 39°05' W 075°11'0 0.8
2017-Sep-13 09:01N 39°06' W 075°12'0 0.9
2017-Sep-13 08:30N 39°06' W 075°12'0 0.4
2017-Sep-13 08:01N 39°06' W 075°12'1 1.1
2017-Sep-13 07:31N 39°06' W 075°12'1 1.4
2017-Sep-13 07:00N 39°05' W 075°11'0 0.8
2017-Sep-13 06:31N 39°05' W 075°11'1 1.2
2017-Sep-13 06:01N 39°06' W 075°12'0 0.4
2017-Sep-13 05:30N 39°06' W 075°12'1 1.6
2017-Sep-13 05:01N 39°05' W 075°11'1 2.6
2017-Sep-13 04:30N 39°06' W 075°12'4 8.7
2017-Sep-13 04:01N 39°10' W 075°16'5 9.5
2017-Sep-13 03:31N 39°14' W 075°19'510.1
2017-Sep-13 03:01N 39°18' W 075°23'611.1
2017-Sep-13 02:30N 39°22' W 075°28'510.8
2017-Sep-13 02:01N 39°26' W 075°32'3 6.6
2017-Sep-13 01:31N 39°29' W 075°34'0 0.1
2017-Sep-13 01:01N 39°29' W 075°34'0 0.0
2017-Sep-13 00:31N 39°29' W 075°34'0 0.0
2017-Sep-13 00:00N 39°29' W 075°34'0 0.0
2017-Sep-12 23:30N 39°29' W 075°34'0 0.0
2017-Sep-12 23:01N 39°29' W 075°34'2 3.1
2017-Sep-12 22:30N 39°28' W 075°34'5 9.5
2017-Sep-12 22:00N 39°24' W 075°30'510.2
2017-Sep-12 21:31N 39°20' W 075°25'510.6
2017-Sep-12 21:00N 39°16' W 075°21'510.6
2017-Sep-12 20:30N 39°12' W 075°17'510.4
2017-Sep-12 20:00N 39°08' W 075°13'2 4.1
2017-Sep-12 19:30N 39°06' W 075°12'0 0.9
2017-Sep-12 19:00N 39°05' W 075°11'0 0.8
2017-Sep-12 18:31N 39°05' W 075°11'0 0.9
2017-Sep-12 18:00N 39°06' W 075°11'0 0.9
2017-Sep-12 17:30N 39°06' W 075°12'1 1.4
2017-Sep-12 17:00N 39°05' W 075°11'0 0.8
2017-Sep-12 16:30N 39°06' W 075°12'0 0.8
2017-Sep-12 16:00N 39°06' W 075°12'0 0.8
2017-Sep-12 15:30N 39°06' W 075°12'1 1.3
2017-Sep-12 15:00N 39°05' W 075°11'1 2.4
2017-Sep-12 14:31N 39°06' W 075°12'4 8.0
2017-Sep-12 14:01N 39°09' W 075°15'5 9.1
2017-Sep-12 13:31N 39°13' W 075°18'5 9.4
2017-Sep-12 13:01N 39°17' W 075°22'510.3
2017-Sep-12 12:31N 39°21' W 075°26'10 4.1
2017-Sep-12 10:00N 39°29' W 075°34'0 0.1
2017-Sep-12 09:16N 39°29' W 075°34'0 0.2
2017-Sep-12 09:01N 39°29' W 075°34'2 4.2
2017-Sep-12 08:31N 39°27' W 075°33'5 9.5
2017-Sep-12 08:01N 39°24' W 075°29'510.6
2017-Sep-12 07:30N 39°20' W 075°25'510.9
2017-Sep-12 07:01N 39°16' W 075°20'510.2
2017-Sep-12 06:30N 39°11' W 075°17'510.0
2017-Sep-12 06:01N 39°07' W 075°13'2 4.1
2017-Sep-12 05:31N 39°05' W 075°11'0 0.8
2017-Sep-12 05:01N 39°05' W 075°11'0 0.7
2017-Sep-12 04:30N 39°05' W 075°11'1 1.0
2017-Sep-12 04:01N 39°06' W 075°12'1 1.6
2017-Sep-12 03:30N 39°05' W 075°11'0 0.9
2017-Sep-12 03:00N 39°06' W 075°11'1 1.1
2017-Sep-12 02:30N 39°06' W 075°12'0 0.9
2017-Sep-12 02:00N 39°06' W 075°12'0 0.9
2017-Sep-12 01:30N 39°05' W 075°11'0 0.9
2017-Sep-12 01:00N 39°06' W 075°12'0 0.5
2017-Sep-12 00:30N 39°06' W 075°12'1 1.0
2017-Sep-12 00:00N 39°05' W 075°11'0 0.7
2017-Sep-11 23:30N 39°05' W 075°11'3 6.3
2017-Sep-11 23:00N 39°08' W 075°14'510.1
2017-Sep-11 22:30N 39°12' W 075°17'510.4
2017-Sep-11 22:00N 39°16' W 075°21'510.4
2017-Sep-11 21:30N 39°20' W 075°25'5 9.7
2017-Sep-11 21:00N 39°24' W 075°29'5 9.2
2017-Sep-11 20:30N 39°27' W 075°33'2 4.5
2017-Sep-11 20:00N 39°29' W 075°34'0 0.0
2017-Sep-11 19:30N 39°29' W 075°34'0 0.0
2017-Sep-11 19:00N 39°29' W 075°33'0 0.0
2017-Sep-11 18:30N 39°29' W 075°33'0 0.0
2017-Sep-11 18:00N 39°29' W 075°34'0 0.0
2017-Sep-11 17:30N 39°29' W 075°34'3 5.5
2017-Sep-11 17:00N 39°27' W 075°33'611.0
2017-Sep-11 16:30N 39°23' W 075°28'510.4
2017-Sep-11 16:00N 39°19' W 075°24'  
Track history (hours):
 
Tides and Currents Weather Stations Pressure Air Temp Water Temp Dewpoint Dewpoint Depression Visibility Wind Speed Wind Dir Waves Ship Positions

Stuyvesant

Owner: THE DUTRA GROUP, SAN RAFAEL, CA. More information available from US FCC via Universal Licensing System and Coast Guard Vessel Documentation Center.

Last reported at 2017-Sep-21 16:00 UTC. Time now 2017-Sep-21 16:09 UTC.
Position N 39°12' W 075°17'.

Length 122 m; draft 10 m.

Type: Dredging. MMSI: 368098000.

Date/timePositionNaut miles runAvg speedWind from/ knotsBaromVisibWave heightAir tempDewpointWater temp
2017-Sep-21 16:00N 39°12' W 075°17'5 9.4
2017-Sep-21 15:30N 39°08' W 075°14'3 6.9
2017-Sep-21 15:00N 39°05' W 075°11'0 0.8
2017-Sep-21 14:30N 39°06' W 075°12'0 0.1
2017-Sep-21 13:59N 39°06' W 075°12'1 1.1
2017-Sep-21 13:30N 39°06' W 075°12'1 2.2
2017-Sep-21 13:00N 39°05' W 075°11'0 0.6
2017-Sep-21 12:30N 39°05' W 075°11'1 1.0
2017-Sep-21 12:00N 39°06' W 075°12'0 0.4
2017-Sep-21 11:30N 39°06' W 075°12'1 1.9
2017-Sep-21 11:00N 39°05' W 075°11'0 0.5
2017-Sep-21 10:30N 39°05' W 075°11'1 1.1
2017-Sep-21 10:00N 39°06' W 075°12'1 1.1
2017-Sep-21 09:31N 39°06' W 075°12'1 1.3
2017-Sep-21 09:00N 39°06' W 075°12'0 0.7
2017-Sep-21 08:30N 39°06' W 075°11'0 0.6
2017-Sep-21 08:00N 39°05' W 075°11'0 0.1
2017-Sep-21 07:30N 39°05' W 075°11'0 0.1
2017-Sep-21 07:00N 39°05' W 075°11'0 0.4
2017-Sep-21 06:30N 39°05' W 075°11'0 0.2
2017-Sep-21 06:00N 39°05' W 075°11'0 0.2
2017-Sep-21 05:30N 39°05' W 075°11'0 0.1
2017-Sep-21 05:00N 39°05' W 075°11'0 0.2
2017-Sep-21 04:30N 39°05' W 075°11'0 0.2
2017-Sep-21 04:00N 39°05' W 075°11'2 3.6
2017-Sep-21 03:30N 39°03' W 075°10'4 9.0
2017-Sep-21 03:00N 38°59' W 075°08'4 8.2
2017-Sep-21 02:30N 38°55' W 075°07'3 2.4
2017-Sep-21 01:03N 38°57' W 075°11'0 0.1
2017-Sep-21 01:00N 38°57' W 075°11'0 0.0
2017-Sep-21 00:30N 38°57' W 075°11'0 0.1
2017-Sep-20 22:06N 38°56' W 075°11'0 0.1
2017-Sep-20 21:51N 38°56' W 075°11'0 0.0
2017-Sep-20 21:27N 38°56' W 075°11'0 0.0
2017-Sep-20 20:57N 38°56' W 075°11'0 0.0
2017-Sep-20 20:30N 38°56' W 075°11'0 0.0
2017-Sep-20 19:57N 38°56' W 075°11'0 0.0
2017-Sep-20 19:24N 38°56' W 075°11'0 0.0
2017-Sep-20 19:00N 38°56' W 075°11'0 0.0
2017-Sep-20 18:30N 38°56' W 075°11'0 0.0
2017-Sep-20 18:00N 38°56' W 075°11'0 0.0
2017-Sep-20 17:30N 38°56' W 075°11'0 0.0
2017-Sep-20 17:00N 38°56' W 075°11'0 0.0
2017-Sep-20 16:30N 38°56' W 075°11'0 0.0
2017-Sep-20 16:00N 38°56' W 075°11'0 0.0
2017-Sep-20 15:30N 38°56' W 075°11'0 0.1
2017-Sep-20 14:57N 38°56' W 075°11'0 0.2
2017-Sep-20 14:00N 38°57' W 075°11'0 0.0
2017-Sep-20 12:33N 38°56' W 075°11'0 0.0
2017-Sep-20 12:24N 38°56' W 075°11'0 0.1
2017-Sep-20 12:00N 38°57' W 075°11'0 0.1
2017-Sep-20 11:30N 38°56' W 075°11'0 0.3
2017-Sep-20 11:00N 38°56' W 075°11'0 0.2
2017-Sep-20 10:30N 38°56' W 075°11'0 0.1
2017-Sep-20 09:57N 38°56' W 075°11'0 0.1
2017-Sep-20 09:21N 38°56' W 075°11'0 0.0
2017-Sep-20 09:00N 38°56' W 075°11'0 0.0
2017-Sep-20 08:30N 38°56' W 075°11'0 0.0
2017-Sep-20 07:59N 38°56' W 075°11'0 0.0
2017-Sep-20 07:29N 38°56' W 075°11'0 0.0
2017-Sep-20 06:59N 38°56' W 075°11'0 0.0
2017-Sep-20 06:29N 38°56' W 075°11'0 0.0
2017-Sep-20 05:59N 38°56' W 075°11'0 0.2
2017-Sep-20 05:30N 38°56' W 075°11'2 4.8
2017-Sep-20 05:00N 38°55' W 075°09'10 7.6
2017-Sep-20 03:40N 39°05' W 075°11'2 9.3
2017-Sep-20 03:30N 39°06' W 075°12'5 9.5
2017-Sep-20 03:00N 39°10' W 075°15'5 9.1
2017-Sep-20 02:30N 39°14' W 075°18'4 8.6
2017-Sep-20 02:01N 39°17' W 075°22'3 6.3
2017-Sep-20 01:30N 39°19' W 075°24'1 1.3
2017-Sep-20 01:01N 39°20' W 075°25'1 1.5
2017-Sep-20 00:31N 39°20' W 075°26'1 1.7
2017-Sep-20 00:01N 39°21' W 075°26'1 1.6
2017-Sep-19 23:31N 39°22' W 075°27'1 2.3
2017-Sep-19 23:00N 39°21' W 075°26'1 2.4
2017-Sep-19 22:31N 39°20' W 075°25'1 2.3
2017-Sep-19 22:01N 39°19' W 075°24'1 2.0
2017-Sep-19 21:31N 39°18' W 075°23'1 1.1
2017-Sep-19 21:01N 39°18' W 075°23'1 1.5
2017-Sep-19 20:30N 39°17' W 075°22'1 1.3
2017-Sep-19 20:00N 39°17' W 075°21'0 0.9
2017-Sep-19 19:30N 39°17' W 075°21'0 0.7
2017-Sep-19 19:01N 39°16' W 075°21'0 0.9
2017-Sep-19 18:30N 39°16' W 075°20'1 1.0
2017-Sep-19 18:01N 39°16' W 075°20'1 1.2
2017-Sep-19 17:31N 39°15' W 075°20'1 1.7
2017-Sep-19 17:01N 39°15' W 075°19'1 1.8
2017-Sep-19 16:30N 39°14' W 075°18'1 1.9
2017-Sep-19 16:00N 39°13' W 075°18'1 2.2
2017-Sep-19 15:30N 39°12' W 075°17'1 2.6
2017-Sep-19 15:01N 39°11' W 075°16'2 3.1
2017-Sep-19 14:30N 39°10' W 075°15'4 8.8
2017-Sep-19 14:00N 39°06' W 075°12'5 9.3
2017-Sep-19 13:30N 39°02' W 075°09'5 9.4
2017-Sep-19 13:00N 38°57' W 075°07'3 5.3
2017-Sep-19 12:30N 38°55' W 075°08'2 4.6
2017-Sep-19 12:00N 38°56' W 075°11'0 0.1
2017-Sep-19 11:30N 38°56' W 075°11'0 0.1
2017-Sep-19 11:00N 38°56' W 075°11'0 0.1
2017-Sep-19 10:30N 38°56' W 075°11'0 0.1
2017-Sep-19 10:00N 38°56' W 075°11'0 0.0
2017-Sep-19 09:29N 38°56' W 075°11'0 0.0
2017-Sep-19 09:00N 38°56' W 075°11'0 0.1
2017-Sep-19 08:31N 38°56' W 075°10'0 0.0
2017-Sep-19 07:59N 38°56' W 075°10'0 0.1
2017-Sep-19 07:30N 38°56' W 075°10'0 0.1
2017-Sep-19 07:00N 38°56' W 075°10'0 0.0
2017-Sep-19 06:30N 38°56' W 075°10'0 0.0
2017-Sep-19 06:00N 38°56' W 075°10'0 0.0
2017-Sep-19 05:30N 38°56' W 075°10'0 0.0
2017-Sep-19 05:00N 38°56' W 075°10'0 0.1
2017-Sep-19 04:30N 38°56' W 075°10'1 2.1
2017-Sep-19 04:00N 38°55' W 075°10'10 6.2
2017-Sep-19 02:25N 39°05' W 075°11'4 9.0
2017-Sep-19 02:00N 39°08' W 075°14'4 6.7
2017-Sep-19 01:29N 39°11' W 075°17'2 4.4
2017-Sep-19 01:00N 39°09' W 075°15'510.4
2017-Sep-19 00:30N 39°05' W 075°11'5 9.6
2017-Sep-19 00:00N 39°01' W 075°09'510.0
2017-Sep-18 23:28N 38°56' W 075°06'3 7.1
2017-Sep-18 23:00N 38°56' W 075°10'0 0.7
2017-Sep-18 22:20N 38°56' W 075°11'0 0.0
2017-Sep-18 21:59N 38°56' W 075°11'0 0.0
2017-Sep-18 21:26N 38°56' W 075°11'0 0.1
2017-Sep-18 20:56N 38°56' W 075°11'0 0.1
2017-Sep-18 20:23N 38°56' W 075°11'0 0.0
2017-Sep-18 19:50N 38°56' W 075°11'0 0.0
2017-Sep-18 19:11N 38°56' W 075°11'0 0.1
2017-Sep-18 18:59N 38°56' W 075°11'0 0.1
2017-Sep-18 18:23N 38°56' W 075°11'0 0.0
2017-Sep-18 17:59N 38°56' W 075°11'0 0.0
2017-Sep-18 17:29N 38°56' W 075°11'0 0.0
2017-Sep-18 16:59N 38°56' W 075°11'0 0.0
2017-Sep-18 16:29N 38°56' W 075°11'0 0.0
2017-Sep-18 15:59N 38°56' W 075°11'0 0.0
2017-Sep-18 15:26N 38°56' W 075°11'0 0.1
2017-Sep-18 14:59N 38°56' W 075°11'0 0.0
2017-Sep-18 14:26N 38°56' W 075°11'0 0.0
2017-Sep-18 13:41N 38°56' W 075°11'0 0.1
2017-Sep-18 13:29N 38°56' W 075°11'0 0.0
2017-Sep-18 12:59N 38°56' W 075°11'0 0.1
2017-Sep-18 12:29N 38°56' W 075°11'0 0.1
2017-Sep-18 11:59N 38°57' W 075°11'0 0.0
2017-Sep-18 11:29N 38°57' W 075°11'0 0.0
2017-Sep-18 10:59N 38°57' W 075°11'0 0.0
2017-Sep-18 10:29N 38°57' W 075°11'0 0.0
2017-Sep-18 09:59N 38°57' W 075°11'0 0.0
2017-Sep-18 08:56N 38°56' W 075°11'0 0.1
2017-Sep-18 08:29N 38°56' W 075°11'0 0.1
2017-Sep-18 07:50N 38°56' W 075°11'0 0.0
2017-Sep-18 07:26N 38°56' W 075°11'0 0.1
2017-Sep-18 06:59N 38°56' W 075°11'0 0.0
2017-Sep-18 06:23N 38°56' W 075°11'0 0.0
2017-Sep-18 05:59N 38°56' W 075°11'0 0.0
2017-Sep-18 05:29N 38°56' W 075°10'0 0.0
2017-Sep-18 04:53N 38°56' W 075°10'0 0.0
2017-Sep-18 04:29N 38°56' W 075°10'0 0.0
2017-Sep-18 03:59N 38°56' W 075°10'0 0.0
2017-Sep-18 03:29N 38°56' W 075°10'0 0.0
2017-Sep-18 02:56N 38°56' W 075°11'0 0.0
2017-Sep-18 02:26N 38°56' W 075°11'0 0.0
2017-Sep-18 01:59N 38°56' W 075°11'0 0.1
2017-Sep-18 00:11N 38°57' W 075°11'0 0.0
2017-Sep-17 23:59N 38°57' W 075°11'0 0.0
2017-Sep-17 23:14N 38°57' W 075°11'0 0.0
2017-Sep-17 22:50N 38°57' W 075°11'0 0.0
2017-Sep-17 22:26N 38°57' W 075°11'0 0.0
2017-Sep-17 21:53N 38°57' W 075°11'0 0.0
2017-Sep-17 21:29N 38°57' W 075°11'0 0.0
2017-Sep-17 19:44N 38°57' W 075°11'0 0.1
2017-Sep-17 19:29N 38°56' W 075°11'0 0.2
2017-Sep-17 18:56N 38°56' W 075°11'0 0.0
2017-Sep-17 18:23N 38°56' W 075°11'0 0.0
2017-Sep-17 17:56N 38°56' W 075°11'0 0.0
2017-Sep-17 17:29N 38°56' W 075°11'0 0.0
2017-Sep-17 16:53N 38°56' W 075°10'0 0.0
2017-Sep-17 16:28N 38°56' W 075°10'0 0.0
2017-Sep-17 15:58N 38°56' W 075°10'0 0.0
2017-Sep-17 15:28N 38°56' W 075°10'0 0.1
2017-Sep-17 14:58N 38°56' W 075°11'0 0.0
2017-Sep-17 14:25N 38°56' W 075°11'0 0.0
2017-Sep-17 13:58N 38°56' W 075°11'0 0.0
2017-Sep-17 13:28N 38°56' W 075°10'0 0.2
2017-Sep-17 12:43N 38°57' W 075°11'0 0.0
2017-Sep-17 12:25N 38°57' W 075°11'0 0.0
2017-Sep-17 11:58N 38°57' W 075°11'0 0.0
2017-Sep-17 10:16N 38°57' W 075°11'0 0.0
2017-Sep-17 09:58N 38°57' W 075°11'0 0.0
2017-Sep-17 09:22N 38°57' W 075°11'0 0.0
2017-Sep-17 07:34N 38°57' W 075°11'0 0.1
2017-Sep-17 07:28N 38°57' W 075°11'0 0.3
2017-Sep-17 06:58N 38°56' W 075°11'1 1.2
2017-Sep-17 06:30N 38°56' W 075°10'3 6.6
2017-Sep-17 06:00N 38°56' W 075°06'4 8.8
2017-Sep-17 05:30N 38°60' W 075°08'5 9.5
2017-Sep-17 04:57N 39°05' W 075°11'4 9.9
2017-Sep-17 04:31N 39°08' W 075°14'5 9.9
2017-Sep-17 04:00N 39°12' W 075°17'510.1
2017-Sep-17 03:30N 39°16' W 075°21'510.3
2017-Sep-17 03:01N 39°20' W 075°26'510.0
2017-Sep-17 02:30N 39°24' W 075°30'5 9.5
2017-Sep-17 02:00N 39°28' W 075°34'2 3.3
2017-Sep-17 01:30N 39°29' W 075°33'0 0.0
2017-Sep-17 01:00N 39°29' W 075°34'0 0.0
2017-Sep-17 00:30N 39°29' W 075°33'0 0.0
2017-Sep-17 00:00N 39°29' W 075°34'0 0.0
2017-Sep-16 23:31N 39°29' W 075°33'0 0.0
2017-Sep-16 23:00N 39°29' W 075°33'0 0.0
2017-Sep-16 22:30N 39°29' W 075°33'0 0.0
2017-Sep-16 22:00N 39°29' W 075°34'0 0.0
2017-Sep-16 21:30N 39°29' W 075°33'0 0.0
2017-Sep-16 21:00N 39°29' W 075°34'0 0.0
2017-Sep-16 20:30N 39°29' W 075°33'0 0.2
2017-Sep-16 20:00N 39°29' W 075°34'0 0.9
2017-Sep-16 19:30N 39°29' W 075°34'1 2.6
2017-Sep-16 19:00N 39°28' W 075°34'1 2.3
2017-Sep-16 18:30N 39°27' W 075°33'1 2.2
2017-Sep-16 18:00N 39°26' W 075°32'1 2.9
2017-Sep-16 17:30N 39°25' W 075°31'2 4.0
2017-Sep-16 17:00N 39°23' W 075°29'3 7.0
2017-Sep-16 16:30N 39°21' W 075°26'4 8.1
2017-Sep-16 16:00N 39°18' W 075°22'4 8.3
2017-Sep-16 15:30N 39°15' W 075°19'4 8.0
2017-Sep-16 15:00N 39°11' W 075°16'3 7.0
2017-Sep-16 14:30N 39°08' W 075°14'3 6.6
2017-Sep-16 14:00N 39°06' W 075°12'1 1.1
2017-Sep-16 13:30N 39°05' W 075°11'1 1.0
2017-Sep-16 13:00N 39°05' W 075°12'1 1.5
2017-Sep-16 12:30N 39°06' W 075°12'1 1.2
2017-Sep-16 12:01N 39°06' W 075°12'0 0.5
2017-Sep-16 11:30N 39°05' W 075°11'1 1.1
2017-Sep-16 11:00N 39°06' W 075°12'1 1.3
2017-Sep-16 10:30N 39°06' W 075°12'1 1.5
2017-Sep-16 10:00N 39°06' W 075°12'2 3.6
2017-Sep-16 09:31N 39°07' W 075°13'4 7.2
2017-Sep-16 09:00N 39°10' W 075°16'3 6.1
2017-Sep-16 08:30N 39°13' W 075°18'4 7.9
2017-Sep-16 08:00N 39°16' W 075°21'4 9.0
2017-Sep-16 07:30N 39°19' W 075°24'5 9.7
2017-Sep-16 07:00N 39°23' W 075°29'510.0
2017-Sep-16 06:31N 39°27' W 075°33'3 5.1
2017-Sep-16 06:00N 39°29' W 075°34'0 0.0
2017-Sep-16 05:31N 39°29' W 075°34'0 0.0
2017-Sep-16 05:01N 39°29' W 075°34'0 0.0
2017-Sep-16 04:31N 39°29' W 075°34'0 0.0
2017-Sep-16 04:00N 39°29' W 075°34'0 0.0
2017-Sep-16 03:30N 39°29' W 075°34'0 0.0
2017-Sep-16 03:00N 39°29' W 075°34'0 0.0
2017-Sep-16 02:30N 39°29' W 075°34'0 0.1
2017-Sep-16 02:00N 39°29' W 075°34'2 4.3
2017-Sep-16 01:30N 39°27' W 075°33'5 9.2
2017-Sep-16 01:00N 39°24' W 075°29'5 9.6
2017-Sep-16 00:30N 39°20' W 075°25'5 9.8
2017-Sep-16 00:00N 39°16' W 075°21'5 9.8
2017-Sep-15 23:30N 39°13' W 075°17'5 9.6
2017-Sep-15 23:00N 39°08' W 075°14'3 5.4
2017-Sep-15 22:30N 39°06' W 075°12'1 1.1
2017-Sep-15 22:00N 39°06' W 075°12'0 0.8
2017-Sep-15 21:30N 39°05' W 075°11'1 1.0
2017-Sep-15 21:00N 39°06' W 075°12'0 0.5
2017-Sep-15 20:30N 39°06' W 075°12'0 0.9
2017-Sep-15 20:00N 39°05' W 075°11'0 0.8
2017-Sep-15 19:30N 39°06' W 075°12'0 0.6
2017-Sep-15 18:49N 39°06' W 075°12'1 2.7
2017-Sep-15 18:28N 39°05' W 075°11'0 0.7
2017-Sep-15 17:57N 39°05' W 075°11'0 0.6
2017-Sep-15 17:30N 39°06' W 075°12'0 0.7
2017-Sep-15 17:00N 39°06' W 075°12'0 1.0
2017-Sep-15 16:30N 39°06' W 075°12'0 0.8
2017-Sep-15 16:00N 39°05' W 075°11'1 2.7
2017-Sep-15 15:30N 39°06' W 075°12'4 9.0
2017-Sep-15 15:00N 39°10' W 075°16'510.2
2017-Sep-15 14:30N 39°14' W 075°19'510.7
2017-Sep-15 14:00N 39°18' W 075°23'510.5
2017-Sep-15 13:30N 39°22' W 075°28'5 9.5
2017-Sep-15 13:00N 39°26' W 075°32'4 7.1
2017-Sep-15 12:30N 39°29' W 075°34'0 0.3
2017-Sep-15 12:00N 39°29' W 075°34'0 0.0
2017-Sep-15 11:30N 39°29' W 075°34'0 0.0
2017-Sep-15 11:00N 39°29' W 075°34'0 0.0
2017-Sep-15 10:30N 39°29' W 075°34'0 0.0
2017-Sep-15 10:00N 39°29' W 075°34'0 0.0
2017-Sep-15 09:30N 39°29' W 075°34'0 0.0
2017-Sep-15 09:00N 39°29' W 075°34'0 0.0
2017-Sep-15 08:30N 39°29' W 075°33'0 0.0
2017-Sep-15 08:01N 39°29' W 075°33'0 0.3
2017-Sep-15 07:31N 39°29' W 075°34'3 6.5
2017-Sep-15 07:01N 39°26' W 075°32'4 8.3
2017-Sep-15 06:31N 39°23' W 075°29'4 8.3
2017-Sep-15 06:00N 39°20' W 075°25'4 7.1
2017-Sep-15 05:30N 39°17' W 075°22'4 7.6
2017-Sep-15 05:00N 39°15' W 075°19'4 7.3
2017-Sep-15 04:30N 39°11' W 075°17'4 7.7
2017-Sep-15 04:00N 39°08' W 075°14'3 6.6
2017-Sep-15 03:30N 39°05' W 075°11'0 1.0
2017-Sep-15 03:00N 39°06' W 075°12'0 0.3
2017-Sep-15 02:31N 39°06' W 075°12'0 0.6
2017-Sep-15 02:00N 39°05' W 075°11'0 0.9
2017-Sep-15 01:31N 39°05' W 075°11'1 1.1
2017-Sep-15 01:00N 39°05' W 075°12'0 0.7
2017-Sep-15 00:29N 39°06' W 075°12'0 0.4
2017-Sep-15 00:00N 39°06' W 075°12'0 0.8
2017-Sep-14 23:30N 39°06' W 075°12'0 1.0
2017-Sep-14 23:00N 39°05' W 075°11'0 0.2
2017-Sep-14 22:29N 39°05' W 075°11'0 0.8
2017-Sep-14 22:00N 39°06' W 075°12'0 0.3
2017-Sep-14 21:30N 39°06' W 075°12'0 0.2
2017-Sep-14 20:55N 39°06' W 075°12'1 2.5
2017-Sep-14 20:30N 39°07' W 075°12'5 9.9
2017-Sep-14 20:00N 39°11' W 075°16'4 8.5
2017-Sep-14 19:30N 39°14' W 075°19'4 8.6
2017-Sep-14 19:00N 39°18' W 075°22'5 9.6
2017-Sep-14 18:30N 39°21' W 075°26'4 8.9
2017-Sep-14 18:00N 39°25' W 075°30'4 8.8
2017-Sep-14 17:30N 39°28' W 075°34'1 2.5
2017-Sep-14 17:00N 39°29' W 075°34'0 0.0
2017-Sep-14 16:30N 39°29' W 075°34'0 0.0
2017-Sep-14 16:00N 39°29' W 075°34'0 0.0
2017-Sep-14 15:30N 39°29' W 075°34'0 0.0
2017-Sep-14 15:00N 39°29' W 075°34'0 0.0
2017-Sep-14 14:30N 39°29' W 075°34'0 0.0
2017-Sep-14 14:01N 39°29' W 075°34'0 0.0
2017-Sep-14 13:30N 39°29' W 075°34'0 0.0
2017-Sep-14 13:00N 39°29' W 075°34'0 0.0
2017-Sep-14 12:31N 39°29' W 075°34'0 0.1
2017-Sep-14 12:00N 39°29' W 075°34'3 6.3
2017-Sep-14 11:30N 39°26' W 075°32'5 9.3
2017-Sep-14 11:01N 39°23' W 075°28'5 9.5
2017-Sep-14 10:30N 39°19' W 075°24'5 9.7
2017-Sep-14 10:00N 39°16' W 075°20'5 9.5
2017-Sep-14 09:31N 39°12' W 075°17'5 9.2
2017-Sep-14 09:00N 39°08' W 075°14'3 5.4
2017-Sep-14 08:30N 39°06' W 075°12'0 0.6
2017-Sep-14 08:01N 39°06' W 075°12'1 1.6
2017-Sep-14 07:31N 39°05' W 075°11'0 0.8
2017-Sep-14 07:00N 39°06' W 075°11'1 1.1
2017-Sep-14 06:31N 39°06' W 075°12'1 2.0
2017-Sep-14 06:01N 39°05' W 075°11'0 0.8
2017-Sep-14 05:31N 39°05' W 075°11'0 0.9
2017-Sep-14 05:00N 39°06' W 075°12'0 0.7
2017-Sep-14 04:31N 39°06' W 075°12'1 1.5
2017-Sep-14 04:00N 39°06' W 075°11'1 1.2
2017-Sep-14 03:31N 39°05' W 075°11'1 1.2
2017-Sep-14 03:00N 39°06' W 075°11'1 1.4
2017-Sep-14 02:30N 39°06' W 075°12'4 8.6
2017-Sep-14 02:00N 39°10' W 075°15'4 8.5
2017-Sep-14 01:31N 39°13' W 075°18'1 1.1
2017-Sep-14 01:00N 39°14' W 075°18'1 1.9
2017-Sep-14 00:30N 39°15' W 075°19'3 6.8
2017-Sep-14 00:00N 39°17' W 075°22'5 9.2
2017-Sep-13 23:30N 39°21' W 075°26'4 8.5
2017-Sep-13 23:01N 39°24' W 075°29'4 7.9
2017-Sep-13 22:30N 39°27' W 075°33'3 5.5
2017-Sep-13 22:00N 39°29' W 075°34'0 0.0
2017-Sep-13 21:30N 39°29' W 075°34'0 0.0
2017-Sep-13 21:00N 39°29' W 075°34'0 0.0
2017-Sep-13 20:30N 39°29' W 075°34'0 0.0
2017-Sep-13 20:00N 39°29' W 075°33'0 0.0
2017-Sep-13 19:30N 39°29' W 075°34'0 0.0
2017-Sep-13 19:00N 39°29' W 075°34'0 0.0
2017-Sep-13 18:30N 39°29' W 075°34'0 0.0
2017-Sep-13 18:00N 39°29' W 075°33'0 0.0
2017-Sep-13 17:30N 39°29' W 075°34'0 0.1
2017-Sep-13 17:00N 39°29' W 075°34'2 4.7
2017-Sep-13 16:30N 39°27' W 075°33'4 8.0
2017-Sep-13 16:00N 39°24' W 075°30'4 7.7
2017-Sep-13 15:30N 39°21' W 075°26'4 7.9
2017-Sep-13 15:00N 39°18' W 075°23'4 7.4
2017-Sep-13 14:30N 39°15' W 075°20'4 7.7
2017-Sep-13 14:01N 39°12' W 075°17'4 7.9
2017-Sep-13 13:31N 39°09' W 075°15'3 6.6
2017-Sep-13 13:01N 39°06' W 075°12'1 1.2
2017-Sep-13 12:31N 39°06' W 075°12'0 0.3
2017-Sep-13 12:00N 39°06' W 075°12'1 1.3
2017-Sep-13 11:31N 39°06' W 075°12'0 0.5
2017-Sep-13 11:01N 39°06' W 075°12'0 0.9
2017-Sep-13 10:31N 39°06' W 075°12'1 1.1
2017-Sep-13 10:01N 39°05' W 075°11'0 0.1
2017-Sep-13 09:30N 39°05' W 075°11'0 0.8
2017-Sep-13 09:01N 39°06' W 075°12'0 0.9
2017-Sep-13 08:30N 39°06' W 075°12'0 0.4
2017-Sep-13 08:01N 39°06' W 075°12'1 1.1
2017-Sep-13 07:31N 39°06' W 075°12'1 1.4
2017-Sep-13 07:00N 39°05' W 075°11'0 0.8
2017-Sep-13 06:31N 39°05' W 075°11'1 1.2
2017-Sep-13 06:01N 39°06' W 075°12'0 0.4
2017-Sep-13 05:30N 39°06' W 075°12'1 1.6
2017-Sep-13 05:01N 39°05' W 075°11'1 2.6
2017-Sep-13 04:30N 39°06' W 075°12'4 8.7
2017-Sep-13 04:01N 39°10' W 075°16'5 9.5
2017-Sep-13 03:31N 39°14' W 075°19'510.1
2017-Sep-13 03:01N 39°18' W 075°23'611.1
2017-Sep-13 02:30N 39°22' W 075°28'510.8
2017-Sep-13 02:01N 39°26' W 075°32'3 6.6
2017-Sep-13 01:31N 39°29' W 075°34'0 0.1
2017-Sep-13 01:01N 39°29' W 075°34'0 0.0
2017-Sep-13 00:31N 39°29' W 075°34'0 0.0
2017-Sep-13 00:00N 39°29' W 075°34'0 0.0
2017-Sep-12 23:30N 39°29' W 075°34'0 0.0
2017-Sep-12 23:01N 39°29' W 075°34'2 3.1
2017-Sep-12 22:30N 39°28' W 075°34'5 9.5
2017-Sep-12 22:00N 39°24' W 075°30'510.2
2017-Sep-12 21:31N 39°20' W 075°25'510.6
2017-Sep-12 21:00N 39°16' W 075°21'510.6
2017-Sep-12 20:30N 39°12' W 075°17'510.4
2017-Sep-12 20:00N 39°08' W 075°13'2 4.1
2017-Sep-12 19:30N 39°06' W 075°12'0 0.9
2017-Sep-12 19:00N 39°05' W 075°11'0 0.8
2017-Sep-12 18:31N 39°05' W 075°11'0 0.9
2017-Sep-12 18:00N 39°06' W 075°11'0 0.9
2017-Sep-12 17:30N 39°06' W 075°12'1 1.4
2017-Sep-12 17:00N 39°05' W 075°11'0 0.8
2017-Sep-12 16:30N 39°06' W 075°12'0 0.8
2017-Sep-12 16:00N 39°06' W 075°12'0 0.8
2017-Sep-12 15:30N 39°06' W 075°12'1 1.3
2017-Sep-12 15:00N 39°05' W 075°11'1 2.4
2017-Sep-12 14:31N 39°06' W 075°12'4 8.0
2017-Sep-12 14:01N 39°09' W 075°15'5 9.1
2017-Sep-12 13:31N 39°13' W 075°18'5 9.4
2017-Sep-12 13:01N 39°17' W 075°22'510.3
2017-Sep-12 12:31N 39°21' W 075°26'10 4.1
2017-Sep-12 10:00N 39°29' W 075°34'0 0.1
2017-Sep-12 09:16N 39°29' W 075°34'0 0.2
2017-Sep-12 09:01N 39°29' W 075°34'2 4.2
2017-Sep-12 08:31N 39°27' W 075°33'5 9.5
2017-Sep-12 08:01N 39°24' W 075°29'510.6
2017-Sep-12 07:30N 39°20' W 075°25'510.9
2017-Sep-12 07:01N 39°16' W 075°20'510.2
2017-Sep-12 06:30N 39°11' W 075°17'510.0
2017-Sep-12 06:01N 39°07' W 075°13'2 4.1
2017-Sep-12 05:31N 39°05' W 075°11'0 0.8
2017-Sep-12 05:01N 39°05' W 075°11'0 0.7
2017-Sep-12 04:30N 39°05' W 075°11'1 1.0
2017-Sep-12 04:01N 39°06' W 075°12'1 1.6
2017-Sep-12 03:30N 39°05' W 075°11'0 0.9
2017-Sep-12 03:00N 39°06' W 075°11'1 1.1
2017-Sep-12 02:30N 39°06' W 075°12'0 0.9
2017-Sep-12 02:00N 39°06' W 075°12'0 0.9
2017-Sep-12 01:30N 39°05' W 075°11'0 0.9
2017-Sep-12 01:00N 39°06' W 075°12'0 0.5
2017-Sep-12 00:30N 39°06' W 075°12'1 1.0
2017-Sep-12 00:00N 39°05' W 075°11'0 0.7
2017-Sep-11 23:30N 39°05' W 075°11'3 6.3
2017-Sep-11 23:00N 39°08' W 075°14'510.1
2017-Sep-11 22:30N 39°12' W 075°17'510.4
2017-Sep-11 22:00N 39°16' W 075°21'510.4
2017-Sep-11 21:30N 39°20' W 075°25'5 9.7
2017-Sep-11 21:00N 39°24' W 075°29'5 9.2
2017-Sep-11 20:30N 39°27' W 075°33'2 4.5
2017-Sep-11 20:00N 39°29' W 075°34'0 0.0
2017-Sep-11 19:30N 39°29' W 075°34'0 0.0
2017-Sep-11 19:00N 39°29' W 075°33'0 0.0
2017-Sep-11 18:30N 39°29' W 075°33'0 0.0
2017-Sep-11 18:00N 39°29' W 075°34'0 0.0
2017-Sep-11 17:30N 39°29' W 075°34'3 5.5
2017-Sep-11 17:00N 39°27' W 075°33'611.0
2017-Sep-11 16:30N 39°23' W 075°28'510.4
2017-Sep-11 16:00N 39°19' W 075°24'  

Dump ship's entire track history